Aviation Digital Data Service (ADDS)

Output produced by METARs form (2318 UTC 18 October 2019)
found at http://www.aviationweather.gov/metar/data/
 
METAR text: EDDC 182250Z 21006KT CAVOK 12/09 Q1012
Conditions at: EDDC (DRESDEN/KLOTZSCH, DE) observed 2250 UTC 18 October 2019
Temperature: 12.0°C (54°F)
Dewpoint: 9.0°C (48°F) [RH = 82%]
Pressure (altimeter): 29.88 inches Hg (1012.0 mb)
Winds: from the SSW (210 degrees) at 7 MPH (6 knots; 3.1 m/s)
Visibility: 6 or more miles (10+ km)
Ceiling: ceiling and visibility are OK
Clouds: unknown
Weather: no significant weather observed at this time

METAR text: EDDC 182220Z 22005KT CAVOK 12/09 Q1012
Conditions at: EDDC (DRESDEN/KLOTZSCH, DE) observed 2220 UTC 18 October 2019
Temperature: 12.0°C (54°F)
Dewpoint: 9.0°C (48°F) [RH = 82%]
Pressure (altimeter): 29.88 inches Hg (1012.0 mb)
Winds: from the SW (220 degrees) at 6 MPH (5 knots; 2.6 m/s)
Visibility: 6 or more miles (10+ km)
Ceiling: ceiling and visibility are OK
Clouds: unknown
Weather: no significant weather observed at this time

METAR text: EDDC 182150Z 22007KT CAVOK 13/09 Q1012
Conditions at: EDDC (DRESDEN/KLOTZSCH, DE) observed 2150 UTC 18 October 2019
Temperature: 13.0°C (55°F)
Dewpoint: 9.0°C (48°F) [RH = 77%]
Pressure (altimeter): 29.88 inches Hg (1012.0 mb)
Winds: from the SW (220 degrees) at 8 MPH (7 knots; 3.6 m/s)
Visibility: 6 or more miles (10+ km)
Ceiling: ceiling and visibility are OK
Clouds: unknown
Weather: no significant weather observed at this time

METAR text: EDDC 182120Z 22009KT CAVOK 13/10 Q1012
Conditions at: EDDC (DRESDEN/KLOTZSCH, DE) observed 2120 UTC 18 October 2019
Temperature: 13.0°C (55°F)
Dewpoint: 10.0°C (50°F) [RH = 82%]
Pressure (altimeter): 29.88 inches Hg (1012.0 mb)
Winds: from the SW (220 degrees) at 10 MPH (9 knots; 4.6 m/s)
Visibility: 6 or more miles (10+ km)
Ceiling: ceiling and visibility are OK
Clouds: unknown
Weather: no significant weather observed at this time

METAR text: EDDC 182050Z 22008KT CAVOK 13/10 Q1012
Conditions at: EDDC (DRESDEN/KLOTZSCH, DE) observed 2050 UTC 18 October 2019
Temperature: 13.0°C (55°F)
Dewpoint: 10.0°C (50°F) [RH = 82%]
Pressure (altimeter): 29.88 inches Hg (1012.0 mb)
Winds: from the SW (220 degrees) at 9 MPH (8 knots; 4.1 m/s)
Visibility: 6 or more miles (10+ km)
Ceiling: ceiling and visibility are OK
Clouds: unknown
Weather: no significant weather observed at this time

METAR text: EDDC 182020Z 23009KT CAVOK 14/10 Q1011
Conditions at: EDDC (DRESDEN/KLOTZSCH, DE) observed 2020 UTC 18 October 2019
Temperature: 14.0°C (57°F)
Dewpoint: 10.0°C (50°F) [RH = 77%]
Pressure (altimeter): 29.85 inches Hg (1011.0 mb)
Winds: from the SW (230 degrees) at 10 MPH (9 knots; 4.6 m/s)
Visibility: 6 or more miles (10+ km)
Ceiling: ceiling and visibility are OK
Clouds: unknown
Weather: no significant weather observed at this time

METAR text: EDDC 181950Z 22008KT CAVOK 14/10 Q1011 NOSIG
Conditions at: EDDC (DRESDEN/KLOTZSCH, DE) observed 1950 UTC 18 October 2019
Temperature: 14.0°C (57°F)
Dewpoint: 10.0°C (50°F) [RH = 77%]
Pressure (altimeter): 29.85 inches Hg (1011.0 mb)
Winds: from the SW (220 degrees) at 9 MPH (8 knots; 4.1 m/s)
Visibility: 6 or more miles (10+ km)
Ceiling: ceiling and visibility are OK
Clouds: unknown
Weather: no significant weather observed at this time

METAR text: EDDC 181920Z 22009KT CAVOK 15/11 Q1011 NOSIG
Conditions at: EDDC (DRESDEN/KLOTZSCH, DE) observed 1920 UTC 18 October 2019
Temperature: 15.0°C (59°F)
Dewpoint: 11.0°C (52°F) [RH = 77%]
Pressure (altimeter): 29.85 inches Hg (1011.0 mb)
Winds: from the SW (220 degrees) at 10 MPH (9 knots; 4.6 m/s)
Visibility: 6 or more miles (10+ km)
Ceiling: ceiling and visibility are OK
Clouds: unknown
Weather: no significant weather observed at this time

METAR text: EDDC 181850Z 21011KT CAVOK 15/11 Q1011 NOSIG
Conditions at: EDDC (DRESDEN/KLOTZSCH, DE) observed 1850 UTC 18 October 2019
Temperature: 15.0°C (59°F)
Dewpoint: 11.0°C (52°F) [RH = 77%]
Pressure (altimeter): 29.85 inches Hg (1011.0 mb)
Winds: from the SSW (210 degrees) at 13 MPH (11 knots; 5.7 m/s)
Visibility: 6 or more miles (10+ km)
Ceiling: ceiling and visibility are OK
Clouds: unknown
Weather: no significant weather observed at this time

METAR text: EDDC 181820Z 21010KT CAVOK 15/12 Q1011 NOSIG
Conditions at: EDDC (DRESDEN/KLOTZSCH, DE) observed 1820 UTC 18 October 2019
Temperature: 15.0°C (59°F)
Dewpoint: 12.0°C (54°F) [RH = 82%]
Pressure (altimeter): 29.85 inches Hg (1011.0 mb)
Winds: from the SSW (210 degrees) at 12 MPH (10 knots; 5.1 m/s)
Visibility: 6 or more miles (10+ km)
Ceiling: ceiling and visibility are OK
Clouds: unknown
Weather: no significant weather observed at this time

METAR text: EDDC 181750Z 23007KT 9999 FEW050CB 15/12 Q1011 NOSIG
Conditions at: EDDC (DRESDEN/KLOTZSCH, DE) observed 1750 UTC 18 October 2019
Temperature: 15.0°C (59°F)
Dewpoint: 12.0°C (54°F) [RH = 82%]
Pressure (altimeter): 29.85 inches Hg (1011.0 mb)
Winds: from the SW (230 degrees) at 8 MPH (7 knots; 3.6 m/s)
Visibility: 6 or more miles (10+ km)
Ceiling: at least 12,000 feet AGL
Clouds: few clouds at 5000 feet AGL
Weather: no significant weather observed at this time

METAR text: EDDC 181720Z 23007KT 200V270 9999 -SHRA SCT048CB 16/12 Q1011 NOSIG
Conditions at: EDDC (DRESDEN/KLOTZSCH, DE) observed 1720 UTC 18 October 2019
Temperature: 16.0°C (61°F)
Dewpoint: 12.0°C (54°F) [RH = 77%]
Pressure (altimeter): 29.85 inches Hg (1011.0 mb)
Winds: from the SW (230 degrees) at 8 MPH (7 knots; 3.6 m/s)
Visibility: 6 or more miles (10+ km)
Ceiling: at least 12,000 feet AGL
Clouds: scattered clouds at 4800 feet AGL
Weather: -SHRA  (light rain showers)

METAR text: EDDC 181650Z 19009KT 9999 -SHRA FEW040CB 16/11 Q1010 TEMPO 22015G25KT 4000 SHRA BKN030CB
Conditions at: EDDC (DRESDEN/KLOTZSCH, DE) observed 1650 UTC 18 October 2019
Temperature: 16.0°C (61°F)
Dewpoint: 11.0°C (52°F) [RH = 72%]
Pressure (altimeter): 29.82 inches Hg (1010.0 mb)
Winds: from the S (190 degrees) at 10 MPH (9 knots; 4.6 m/s)
Visibility: 6 or more miles (10+ km)
Ceiling: at least 12,000 feet AGL
Clouds: few clouds at 4000 feet AGL
Weather: -SHRA  (light rain showers)

METAR text: EDDC 181620Z 18009KT CAVOK 16/11 Q1010 TEMPO 22015G25KT 4000 SHRA BKN030CB
Conditions at: EDDC (DRESDEN/KLOTZSCH, DE) observed 1620 UTC 18 October 2019
Temperature: 16.0°C (61°F)
Dewpoint: 11.0°C (52°F) [RH = 72%]
Pressure (altimeter): 29.82 inches Hg (1010.0 mb)
Winds: from the S (180 degrees) at 10 MPH (9 knots; 4.6 m/s)
Visibility: 6 or more miles (10+ km)
Ceiling: ceiling and visibility are OK
Clouds: unknown
Weather: no significant weather observed at this time

METAR text: EDDC 181550Z 18009KT CAVOK 17/11 Q1010 NOSIG
Conditions at: EDDC (DRESDEN/KLOTZSCH, DE) observed 1550 UTC 18 October 2019
Temperature: 17.0°C (63°F)
Dewpoint: 11.0°C (52°F) [RH = 68%]
Pressure (altimeter): 29.82 inches Hg (1010.0 mb)
Winds: from the S (180 degrees) at 10 MPH (9 knots; 4.6 m/s)
Visibility: 6 or more miles (10+ km)
Ceiling: ceiling and visibility are OK
Clouds: unknown
Weather: no significant weather observed at this time

METAR text: EDDC 181520Z 17008KT CAVOK 17/11 Q1010 NOSIG
Conditions at: EDDC (DRESDEN/KLOTZSCH, DE) observed 1520 UTC 18 October 2019
Temperature: 17.0°C (63°F)
Dewpoint: 11.0°C (52°F) [RH = 68%]
Pressure (altimeter): 29.82 inches Hg (1010.0 mb)
Winds: from the S (170 degrees) at 9 MPH (8 knots; 4.1 m/s)
Visibility: 6 or more miles (10+ km)
Ceiling: ceiling and visibility are OK
Clouds: unknown
Weather: no significant weather observed at this time

METAR text: EDDC 181450Z 17010KT CAVOK 17/11 Q1010 NOSIG
Conditions at: EDDC (DRESDEN/KLOTZSCH, DE) observed 1450 UTC 18 October 2019
Temperature: 17.0°C (63°F)
Dewpoint: 11.0°C (52°F) [RH = 68%]
Pressure (altimeter): 29.82 inches Hg (1010.0 mb)
Winds: from the S (170 degrees) at 12 MPH (10 knots; 5.1 m/s)
Visibility: 6 or more miles (10+ km)
Ceiling: ceiling and visibility are OK
Clouds: unknown
Weather: no significant weather observed at this time

METAR text: EDDC 181420Z 17011KT 9999 FEW042 18/11 Q1010 NOSIG
Conditions at: EDDC (DRESDEN/KLOTZSCH, DE) observed 1420 UTC 18 October 2019
Temperature: 18.0°C (64°F)
Dewpoint: 11.0°C (52°F) [RH = 64%]
Pressure (altimeter): 29.82 inches Hg (1010.0 mb)
Winds: from the S (170 degrees) at 13 MPH (11 knots; 5.7 m/s)
Visibility: 6 or more miles (10+ km)
Ceiling: at least 12,000 feet AGL
Clouds: few clouds at 4200 feet AGL
Weather: no significant weather observed at this time

METAR text: EDDC 181350Z 16012KT 9999 FEW040 18/11 Q1010 NOSIG
Conditions at: EDDC (DRESDEN/KLOTZSCH, DE) observed 1350 UTC 18 October 2019
Temperature: 18.0°C (64°F)
Dewpoint: 11.0°C (52°F) [RH = 64%]
Pressure (altimeter): 29.82 inches Hg (1010.0 mb)
Winds: from the SSE (160 degrees) at 14 MPH (12 knots; 6.2 m/s)
Visibility: 6 or more miles (10+ km)
Ceiling: at least 12,000 feet AGL
Clouds: few clouds at 4000 feet AGL
Weather: no significant weather observed at this time

METAR text: EDDC 181320Z 17010KT 9999 FEW040 19/12 Q1010 NOSIG
Conditions at: EDDC (DRESDEN/KLOTZSCH, DE) observed 1320 UTC 18 October 2019
Temperature: 19.0°C (66°F)
Dewpoint: 12.0°C (54°F) [RH = 64%]
Pressure (altimeter): 29.82 inches Hg (1010.0 mb)
Winds: from the S (170 degrees) at 12 MPH (10 knots; 5.1 m/s)
Visibility: 6 or more miles (10+ km)
Ceiling: at least 12,000 feet AGL
Clouds: few clouds at 4000 feet AGL
Weather: no significant weather observed at this time

METAR text: EDDC 181250Z 15008KT 120V180 9999 FEW038 19/12 Q1010 NOSIG
Conditions at: EDDC (DRESDEN/KLOTZSCH, DE) observed 1250 UTC 18 October 2019
Temperature: 19.0°C (66°F)
Dewpoint: 12.0°C (54°F) [RH = 64%]
Pressure (altimeter): 29.82 inches Hg (1010.0 mb)
Winds: from the SSE (150 degrees) at 9 MPH (8 knots; 4.1 m/s)
Visibility: 6 or more miles (10+ km)
Ceiling: at least 12,000 feet AGL
Clouds: few clouds at 3800 feet AGL
Weather: no significant weather observed at this time

METAR text: EDDC 181220Z 13009KT 9999 FEW035 18/12 Q1010 NOSIG
Conditions at: EDDC (DRESDEN/KLOTZSCH, DE) observed 1220 UTC 18 October 2019
Temperature: 18.0°C (64°F)
Dewpoint: 12.0°C (54°F) [RH = 68%]
Pressure (altimeter): 29.82 inches Hg (1010.0 mb)
Winds: from the SE (130 degrees) at 10 MPH (9 knots; 4.6 m/s)
Visibility: 6 or more miles (10+ km)
Ceiling: at least 12,000 feet AGL
Clouds: few clouds at 3500 feet AGL
Weather: no significant weather observed at this time

METAR text: EDDC 181150Z 14007KT 110V180 9999 FEW033 SCT046 19/12 Q1011 NOSIG
Conditions at: EDDC (DRESDEN/KLOTZSCH, DE) observed 1150 UTC 18 October 2019
Temperature: 19.0°C (66°F)
Dewpoint: 12.0°C (54°F) [RH = 64%]
Pressure (altimeter): 29.85 inches Hg (1011.0 mb)
Winds: from the SE (140 degrees) at 8 MPH (7 knots; 3.6 m/s)
Visibility: 6 or more miles (10+ km)
Ceiling: at least 12,000 feet AGL
Clouds: few clouds at 3300 feet AGL
scattered clouds at 4600 feet AGL
Weather: no significant weather observed at this time

METAR text: EDDC 181120Z 17006KT 140V200 9999 FEW032 18/11 Q1011 NOSIG
Conditions at: EDDC (DRESDEN/KLOTZSCH, DE) observed 1120 UTC 18 October 2019
Temperature: 18.0°C (64°F)
Dewpoint: 11.0°C (52°F) [RH = 64%]
Pressure (altimeter): 29.85 inches Hg (1011.0 mb)
Winds: from the S (170 degrees) at 7 MPH (6 knots; 3.1 m/s)
Visibility: 6 or more miles (10+ km)
Ceiling: at least 12,000 feet AGL
Clouds: few clouds at 3200 feet AGL
Weather: no significant weather observed at this time

METAR text: EDDC 181050Z 14005KT 100V180 9999 FEW031 18/11 Q1012 NOSIG
Conditions at: EDDC (DRESDEN/KLOTZSCH, DE) observed 1050 UTC 18 October 2019
Temperature: 18.0°C (64°F)
Dewpoint: 11.0°C (52°F) [RH = 64%]
Pressure (altimeter): 29.88 inches Hg (1012.0 mb)
Winds: from the SE (140 degrees) at 6 MPH (5 knots; 2.6 m/s)
Visibility: 6 or more miles (10+ km)
Ceiling: at least 12,000 feet AGL
Clouds: few clouds at 3100 feet AGL
Weather: no significant weather observed at this time

METAR text: EDDC 181020Z 15007KT 9999 FEW029 19/11 Q1012 NOSIG
Conditions at: EDDC (DRESDEN/KLOTZSCH, DE) observed 1020 UTC 18 October 2019
Temperature: 19.0°C (66°F)
Dewpoint: 11.0°C (52°F) [RH = 60%]
Pressure (altimeter): 29.88 inches Hg (1012.0 mb)
Winds: from the SSE (150 degrees) at 8 MPH (7 knots; 3.6 m/s)
Visibility: 6 or more miles (10+ km)
Ceiling: at least 12,000 feet AGL
Clouds: few clouds at 2900 feet AGL
Weather: no significant weather observed at this time

METAR text: EDDC 180950Z 14006KT 120V190 9999 FEW026 18/11 Q1012 NOSIG
Conditions at: EDDC (DRESDEN/KLOTZSCH, DE) observed 0950 UTC 18 October 2019
Temperature: 18.0°C (64°F)
Dewpoint: 11.0°C (52°F) [RH = 64%]
Pressure (altimeter): 29.88 inches Hg (1012.0 mb)
Winds: from the SE (140 degrees) at 7 MPH (6 knots; 3.1 m/s)
Visibility: 6 or more miles (10+ km)
Ceiling: at least 12,000 feet AGL
Clouds: few clouds at 2600 feet AGL
Weather: no significant weather observed at this time

METAR text: EDDC 180920Z 17007KT 140V200 CAVOK 17/11 Q1012 NOSIG
Conditions at: EDDC (DRESDEN/KLOTZSCH, DE) observed 0920 UTC 18 October 2019
Temperature: 17.0°C (63°F)
Dewpoint: 11.0°C (52°F) [RH = 68%]
Pressure (altimeter): 29.88 inches Hg (1012.0 mb)
Winds: from the S (170 degrees) at 8 MPH (7 knots; 3.6 m/s)
Visibility: 6 or more miles (10+ km)
Ceiling: ceiling and visibility are OK
Clouds: unknown
Weather: no significant weather observed at this time

METAR text: EDDC 180850Z 17008KT CAVOK 15/11 Q1013 NOSIG
Conditions at: EDDC (DRESDEN/KLOTZSCH, DE) observed 0850 UTC 18 October 2019
Temperature: 15.0°C (59°F)
Dewpoint: 11.0°C (52°F) [RH = 77%]
Pressure (altimeter): 29.91 inches Hg (1013.0 mb)
Winds: from the S (170 degrees) at 9 MPH (8 knots; 4.1 m/s)
Visibility: 6 or more miles (10+ km)
Ceiling: ceiling and visibility are OK
Clouds: unknown
Weather: no significant weather observed at this time

METAR text: EDDC 180820Z 17008KT CAVOK 15/11 Q1013 NOSIG
Conditions at: EDDC (DRESDEN/KLOTZSCH, DE) observed 0820 UTC 18 October 2019
Temperature: 15.0°C (59°F)
Dewpoint: 11.0°C (52°F) [RH = 77%]
Pressure (altimeter): 29.91 inches Hg (1013.0 mb)
Winds: from the S (170 degrees) at 9 MPH (8 knots; 4.1 m/s)
Visibility: 6 or more miles (10+ km)
Ceiling: ceiling and visibility are OK
Clouds: unknown
Weather: no significant weather observed at this time

METAR text: EDDC 180750Z 17008KT CAVOK 14/11 Q1013 NOSIG
Conditions at: EDDC (DRESDEN/KLOTZSCH, DE) observed 0750 UTC 18 October 2019
Temperature: 14.0°C (57°F)
Dewpoint: 11.0°C (52°F) [RH = 82%]
Pressure (altimeter): 29.91 inches Hg (1013.0 mb)
Winds: from the S (170 degrees) at 9 MPH (8 knots; 4.1 m/s)
Visibility: 6 or more miles (10+ km)
Ceiling: ceiling and visibility are OK
Clouds: unknown
Weather: no significant weather observed at this time

METAR text: EDDC 180720Z 17007KT CAVOK 13/10 Q1013 NOSIG
Conditions at: EDDC (DRESDEN/KLOTZSCH, DE) observed 0720 UTC 18 October 2019
Temperature: 13.0°C (55°F)
Dewpoint: 10.0°C (50°F) [RH = 82%]
Pressure (altimeter): 29.91 inches Hg (1013.0 mb)
Winds: from the S (170 degrees) at 8 MPH (7 knots; 3.6 m/s)
Visibility: 6 or more miles (10+ km)
Ceiling: ceiling and visibility are OK
Clouds: unknown
Weather: no significant weather observed at this time

METAR text: EDDC 180650Z 16007KT CAVOK 12/10 Q1013 NOSIG
Conditions at: EDDC (DRESDEN/KLOTZSCH, DE) observed 0650 UTC 18 October 2019
Temperature: 12.0°C (54°F)
Dewpoint: 10.0°C (50°F) [RH = 88%]
Pressure (altimeter): 29.91 inches Hg (1013.0 mb)
Winds: from the SSE (160 degrees) at 8 MPH (7 knots; 3.6 m/s)
Visibility: 6 or more miles (10+ km)
Ceiling: ceiling and visibility are OK
Clouds: unknown
Weather: no significant weather observed at this time

METAR text: EDDC 180620Z 17008KT CAVOK 12/10 Q1013 NOSIG
Conditions at: EDDC (DRESDEN/KLOTZSCH, DE) observed 0620 UTC 18 October 2019
Temperature: 12.0°C (54°F)
Dewpoint: 10.0°C (50°F) [RH = 88%]
Pressure (altimeter): 29.91 inches Hg (1013.0 mb)
Winds: from the S (170 degrees) at 9 MPH (8 knots; 4.1 m/s)
Visibility: 6 or more miles (10+ km)
Ceiling: ceiling and visibility are OK
Clouds: unknown
Weather: no significant weather observed at this time

METAR text: EDDC 180550Z 17008KT 9999 FEW033 12/10 Q1013 NOSIG
Conditions at: EDDC (DRESDEN/KLOTZSCH, DE) observed 0550 UTC 18 October 2019
Temperature: 12.0°C (54°F)
Dewpoint: 10.0°C (50°F) [RH = 88%]
Pressure (altimeter): 29.91 inches Hg (1013.0 mb)
Winds: from the S (170 degrees) at 9 MPH (8 knots; 4.1 m/s)
Visibility: 6 or more miles (10+ km)
Ceiling: at least 12,000 feet AGL
Clouds: few clouds at 3300 feet AGL
Weather: no significant weather observed at this time

METAR text: EDDC 180520Z 17007KT 9999 BKN026 12/11 Q1013 NOSIG
Conditions at: EDDC (DRESDEN/KLOTZSCH, DE) observed 0520 UTC 18 October 2019
Temperature: 12.0°C (54°F)
Dewpoint: 11.0°C (52°F) [RH = 94%]
Pressure (altimeter): 29.91 inches Hg (1013.0 mb)
Winds: from the S (170 degrees) at 8 MPH (7 knots; 3.6 m/s)
Visibility: 6 or more miles (10+ km)
Ceiling: 2600 feet AGL
Clouds: broken clouds at 2600 feet AGL
Weather: no significant weather observed at this time

METAR text: EDDC 180450Z 16006KT CAVOK 12/10 Q1013 NOSIG
Conditions at: EDDC (DRESDEN/KLOTZSCH, DE) observed 0450 UTC 18 October 2019
Temperature: 12.0°C (54°F)
Dewpoint: 10.0°C (50°F) [RH = 88%]
Pressure (altimeter): 29.91 inches Hg (1013.0 mb)
Winds: from the SSE (160 degrees) at 7 MPH (6 knots; 3.1 m/s)
Visibility: 6 or more miles (10+ km)
Ceiling: ceiling and visibility are OK
Clouds: unknown
Weather: no significant weather observed at this time

METAR text: EDDC 180420Z 15007KT 9999 -RA NSC 12/10 Q1013 NOSIG
Conditions at: EDDC (DRESDEN/KLOTZSCH, DE) observed 0420 UTC 18 October 2019
Temperature: 12.0°C (54°F)
Dewpoint: 10.0°C (50°F) [RH = 88%]
Pressure (altimeter): 29.91 inches Hg (1013.0 mb)
Winds: from the SSE (150 degrees) at 8 MPH (7 knots; 3.6 m/s)
Visibility: 6 or more miles (10+ km)
Ceiling: at least 12,000 feet AGL
Clouds: sky clear below 12,000 feet AGL
Weather: -RA  (light rain)

METAR text: EDDC 180350Z 16008KT 9999 -RA NSC 12/10 Q1013 NOSIG
Conditions at: EDDC (DRESDEN/KLOTZSCH, DE) observed 0350 UTC 18 October 2019
Temperature: 12.0°C (54°F)
Dewpoint: 10.0°C (50°F) [RH = 88%]
Pressure (altimeter): 29.91 inches Hg (1013.0 mb)
Winds: from the SSE (160 degrees) at 9 MPH (8 knots; 4.1 m/s)
Visibility: 6 or more miles (10+ km)
Ceiling: at least 12,000 feet AGL
Clouds: sky clear below 12,000 feet AGL
Weather: -RA  (light rain)

METAR text: EDDC 180320Z 15009KT 9999 -RA NSC 13/10 Q1013
Conditions at: EDDC (DRESDEN/KLOTZSCH, DE) observed 0320 UTC 18 October 2019
Temperature: 13.0°C (55°F)
Dewpoint: 10.0°C (50°F) [RH = 82%]
Pressure (altimeter): 29.91 inches Hg (1013.0 mb)
Winds: from the SSE (150 degrees) at 10 MPH (9 knots; 4.6 m/s)
Visibility: 6 or more miles (10+ km)
Ceiling: at least 12,000 feet AGL
Clouds: sky clear below 12,000 feet AGL
Weather: -RA  (light rain)

METAR text: EDDC 180250Z 15008KT 9999 -RA NSC 13/09 Q1013
Conditions at: EDDC (DRESDEN/KLOTZSCH, DE) observed 0250 UTC 18 October 2019
Temperature: 13.0°C (55°F)
Dewpoint: 9.0°C (48°F) [RH = 77%]
Pressure (altimeter): 29.91 inches Hg (1013.0 mb)
Winds: from the SSE (150 degrees) at 9 MPH (8 knots; 4.1 m/s)
Visibility: 6 or more miles (10+ km)
Ceiling: at least 12,000 feet AGL
Clouds: sky clear below 12,000 feet AGL
Weather: -RA  (light rain)

METAR text: EDDC 180220Z 15009KT 9999 -RA NSC 13/09 Q1013
Conditions at: EDDC (DRESDEN/KLOTZSCH, DE) observed 0220 UTC 18 October 2019
Temperature: 13.0°C (55°F)
Dewpoint: 9.0°C (48°F) [RH = 77%]
Pressure (altimeter): 29.91 inches Hg (1013.0 mb)
Winds: from the SSE (150 degrees) at 10 MPH (9 knots; 4.6 m/s)
Visibility: 6 or more miles (10+ km)
Ceiling: at least 12,000 feet AGL
Clouds: sky clear below 12,000 feet AGL
Weather: -RA  (light rain)

METAR text: EDDC 180150Z 15009KT 9999 -RA NSC 13/09 Q1013
Conditions at: EDDC (DRESDEN/KLOTZSCH, DE) observed 0150 UTC 18 October 2019
Temperature: 13.0°C (55°F)
Dewpoint: 9.0°C (48°F) [RH = 77%]
Pressure (altimeter): 29.91 inches Hg (1013.0 mb)
Winds: from the SSE (150 degrees) at 10 MPH (9 knots; 4.6 m/s)
Visibility: 6 or more miles (10+ km)
Ceiling: at least 12,000 feet AGL
Clouds: sky clear below 12,000 feet AGL
Weather: -RA  (light rain)

METAR text: EDDC 180120Z 15008KT 9999 -RA NSC 13/09 Q1013
Conditions at: EDDC (DRESDEN/KLOTZSCH, DE) observed 0120 UTC 18 October 2019
Temperature: 13.0°C (55°F)
Dewpoint: 9.0°C (48°F) [RH = 77%]
Pressure (altimeter): 29.91 inches Hg (1013.0 mb)
Winds: from the SSE (150 degrees) at 9 MPH (8 knots; 4.1 m/s)
Visibility: 6 or more miles (10+ km)
Ceiling: at least 12,000 feet AGL
Clouds: sky clear below 12,000 feet AGL
Weather: -RA  (light rain)

METAR text: EDDC 180050Z 16009KT 9999 -RA NSC 13/08 Q1013
Conditions at: EDDC (DRESDEN/KLOTZSCH, DE) observed 0050 UTC 18 October 2019
Temperature: 13.0°C (55°F)
Dewpoint: 8.0°C (46°F) [RH = 72%]
Pressure (altimeter): 29.91 inches Hg (1013.0 mb)
Winds: from the SSE (160 degrees) at 10 MPH (9 knots; 4.6 m/s)
Visibility: 6 or more miles (10+ km)
Ceiling: at least 12,000 feet AGL
Clouds: sky clear below 12,000 feet AGL
Weather: -RA  (light rain)

METAR text: EDDC 180020Z 16008KT CAVOK 12/08 Q1013
Conditions at: EDDC (DRESDEN/KLOTZSCH, DE) observed 0020 UTC 18 October 2019
Temperature: 12.0°C (54°F)
Dewpoint: 8.0°C (46°F) [RH = 76%]
Pressure (altimeter): 29.91 inches Hg (1013.0 mb)
Winds: from the SSE (160 degrees) at 9 MPH (8 knots; 4.1 m/s)
Visibility: 6 or more miles (10+ km)
Ceiling: ceiling and visibility are OK
Clouds: unknown
Weather: no significant weather observed at this time

METAR text: EDDC 172350Z 16009KT CAVOK 11/08 Q1013
Conditions at: EDDC (DRESDEN/KLOTZSCH, DE) observed 2350 UTC 17 October 2019
Temperature: 11.0°C (52°F)
Dewpoint: 8.0°C (46°F) [RH = 82%]
Pressure (altimeter): 29.91 inches Hg (1013.0 mb)
Winds: from the SSE (160 degrees) at 10 MPH (9 knots; 4.6 m/s)
Visibility: 6 or more miles (10+ km)
Ceiling: ceiling and visibility are OK
Clouds: unknown
Weather: no significant weather observed at this time

METAR text: EDDC 172320Z 16007KT CAVOK 11/08 Q1013
Conditions at: EDDC (DRESDEN/KLOTZSCH, DE) observed 2320 UTC 17 October 2019
Temperature: 11.0°C (52°F)
Dewpoint: 8.0°C (46°F) [RH = 82%]
Pressure (altimeter): 29.91 inches Hg (1013.0 mb)
Winds: from the SSE (160 degrees) at 8 MPH (7 knots; 3.6 m/s)
Visibility: 6 or more miles (10+ km)
Ceiling: ceiling and visibility are OK
Clouds: unknown
Weather: no significant weather observed at this time

METAR text: EDDC 172250Z 15007KT CAVOK 11/08 Q1013
Conditions at: EDDC (DRESDEN/KLOTZSCH, DE) observed 2250 UTC 17 October 2019
Temperature: 11.0°C (52°F)
Dewpoint: 8.0°C (46°F) [RH = 82%]
Pressure (altimeter): 29.91 inches Hg (1013.0 mb)
Winds: from the SSE (150 degrees) at 8 MPH (7 knots; 3.6 m/s)
Visibility: 6 or more miles (10+ km)
Ceiling: ceiling and visibility are OK
Clouds: unknown
Weather: no significant weather observed at this time

METAR text: EDDC 172220Z 15007KT CAVOK 11/08 Q1014
Conditions at: EDDC (DRESDEN/KLOTZSCH, DE) observed 2220 UTC 17 October 2019
Temperature: 11.0°C (52°F)
Dewpoint: 8.0°C (46°F) [RH = 82%]
Pressure (altimeter): 29.94 inches Hg (1014.0 mb)
Winds: from the SSE (150 degrees) at 8 MPH (7 knots; 3.6 m/s)
Visibility: 6 or more miles (10+ km)
Ceiling: ceiling and visibility are OK
Clouds: unknown
Weather: no significant weather observed at this time

METAR text: EDDC 172150Z 15006KT CAVOK 11/08 Q1014
Conditions at: EDDC (DRESDEN/KLOTZSCH, DE) observed 2150 UTC 17 October 2019
Temperature: 11.0°C (52°F)
Dewpoint: 8.0°C (46°F) [RH = 82%]
Pressure (altimeter): 29.94 inches Hg (1014.0 mb)
Winds: from the SSE (150 degrees) at 7 MPH (6 knots; 3.1 m/s)
Visibility: 6 or more miles (10+ km)
Ceiling: ceiling and visibility are OK
Clouds: unknown
Weather: no significant weather observed at this time

METAR text: EDDC 172120Z 16006KT CAVOK 11/08 Q1014
Conditions at: EDDC (DRESDEN/KLOTZSCH, DE) observed 2120 UTC 17 October 2019
Temperature: 11.0°C (52°F)
Dewpoint: 8.0°C (46°F) [RH = 82%]
Pressure (altimeter): 29.94 inches Hg (1014.0 mb)
Winds: from the SSE (160 degrees) at 7 MPH (6 knots; 3.1 m/s)
Visibility: 6 or more miles (10+ km)
Ceiling: ceiling and visibility are OK
Clouds: unknown
Weather: no significant weather observed at this time

METAR text: EDDC 172050Z VRB02KT CAVOK 12/08 Q1014
Conditions at: EDDC (DRESDEN/KLOTZSCH, DE) observed 2050 UTC 17 October 2019
Temperature: 12.0°C (54°F)
Dewpoint: 8.0°C (46°F) [RH = 76%]
Pressure (altimeter): 29.94 inches Hg (1014.0 mb)
Winds: variable direction winds at 2 MPH (2 knots; 1.0 m/s)
Visibility: 6 or more miles (10+ km)
Ceiling: ceiling and visibility are OK
Clouds: unknown
Weather: no significant weather observed at this time

METAR text: EDDC 172020Z 17005KT CAVOK 12/08 Q1014 NOSIG
Conditions at: EDDC (DRESDEN/KLOTZSCH, DE) observed 2020 UTC 17 October 2019
Temperature: 12.0°C (54°F)
Dewpoint: 8.0°C (46°F) [RH = 76%]
Pressure (altimeter): 29.94 inches Hg (1014.0 mb)
Winds: from the S (170 degrees) at 6 MPH (5 knots; 2.6 m/s)
Visibility: 6 or more miles (10+ km)
Ceiling: ceiling and visibility are OK
Clouds: unknown
Weather: no significant weather observed at this time

METAR text: EDDC 171950Z 18008KT CAVOK 12/08 Q1014 NOSIG
Conditions at: EDDC (DRESDEN/KLOTZSCH, DE) observed 1950 UTC 17 October 2019
Temperature: 12.0°C (54°F)
Dewpoint: 8.0°C (46°F) [RH = 76%]
Pressure (altimeter): 29.94 inches Hg (1014.0 mb)
Winds: from the S (180 degrees) at 9 MPH (8 knots; 4.1 m/s)
Visibility: 6 or more miles (10+ km)
Ceiling: ceiling and visibility are OK
Clouds: unknown
Weather: no significant weather observed at this time

METAR text: EDDC 171920Z 17004KT CAVOK 13/08 Q1014 NOSIG
Conditions at: EDDC (DRESDEN/KLOTZSCH, DE) observed 1920 UTC 17 October 2019
Temperature: 13.0°C (55°F)
Dewpoint: 8.0°C (46°F) [RH = 72%]
Pressure (altimeter): 29.94 inches Hg (1014.0 mb)
Winds: from the S (170 degrees) at 5 MPH (4 knots; 2.1 m/s)
Visibility: 6 or more miles (10+ km)
Ceiling: ceiling and visibility are OK
Clouds: unknown
Weather: no significant weather observed at this time

METAR text: EDDC 171850Z 17005KT CAVOK 13/08 Q1014 NOSIG
Conditions at: EDDC (DRESDEN/KLOTZSCH, DE) observed 1850 UTC 17 October 2019
Temperature: 13.0°C (55°F)
Dewpoint: 8.0°C (46°F) [RH = 72%]
Pressure (altimeter): 29.94 inches Hg (1014.0 mb)
Winds: from the S (170 degrees) at 6 MPH (5 knots; 2.6 m/s)
Visibility: 6 or more miles (10+ km)
Ceiling: ceiling and visibility are OK
Clouds: unknown
Weather: no significant weather observed at this time

METAR text: EDDC 171820Z 17007KT CAVOK 13/08 Q1014 NOSIG
Conditions at: EDDC (DRESDEN/KLOTZSCH, DE) observed 1820 UTC 17 October 2019
Temperature: 13.0°C (55°F)
Dewpoint: 8.0°C (46°F) [RH = 72%]
Pressure (altimeter): 29.94 inches Hg (1014.0 mb)
Winds: from the S (170 degrees) at 8 MPH (7 knots; 3.6 m/s)
Visibility: 6 or more miles (10+ km)
Ceiling: ceiling and visibility are OK
Clouds: unknown
Weather: no significant weather observed at this time

METAR text: EDDC 171750Z 15007KT CAVOK 13/09 Q1014 NOSIG
Conditions at: EDDC (DRESDEN/KLOTZSCH, DE) observed 1750 UTC 17 October 2019
Temperature: 13.0°C (55°F)
Dewpoint: 9.0°C (48°F) [RH = 77%]
Pressure (altimeter): 29.94 inches Hg (1014.0 mb)
Winds: from the SSE (150 degrees) at 8 MPH (7 knots; 3.6 m/s)
Visibility: 6 or more miles (10+ km)
Ceiling: ceiling and visibility are OK
Clouds: unknown
Weather: no significant weather observed at this time

METAR text: EDDC 171720Z 15006KT CAVOK 13/09 Q1014 NOSIG
Conditions at: EDDC (DRESDEN/KLOTZSCH, DE) observed 1720 UTC 17 October 2019
Temperature: 13.0°C (55°F)
Dewpoint: 9.0°C (48°F) [RH = 77%]
Pressure (altimeter): 29.94 inches Hg (1014.0 mb)
Winds: from the SSE (150 degrees) at 7 MPH (6 knots; 3.1 m/s)
Visibility: 6 or more miles (10+ km)
Ceiling: ceiling and visibility are OK
Clouds: unknown
Weather: no significant weather observed at this time

METAR text: EDDC 171650Z 11004KT CAVOK 14/09 Q1014 NOSIG
Conditions at: EDDC (DRESDEN/KLOTZSCH, DE) observed 1650 UTC 17 October 2019
Temperature: 14.0°C (57°F)
Dewpoint: 9.0°C (48°F) [RH = 72%]
Pressure (altimeter): 29.94 inches Hg (1014.0 mb)
Winds: from the ESE (110 degrees) at 5 MPH (4 knots; 2.1 m/s)
Visibility: 6 or more miles (10+ km)
Ceiling: ceiling and visibility are OK
Clouds: unknown
Weather: no significant weather observed at this time

METAR text: EDDC 171620Z VRB03KT CAVOK 15/09 Q1014 NOSIG
Conditions at: EDDC (DRESDEN/KLOTZSCH, DE) observed 1620 UTC 17 October 2019
Temperature: 15.0°C (59°F)
Dewpoint: 9.0°C (48°F) [RH = 67%]
Pressure (altimeter): 29.94 inches Hg (1014.0 mb)
Winds: variable direction winds at 3 MPH (3 knots; 1.5 m/s)
Visibility: 6 or more miles (10+ km)
Ceiling: ceiling and visibility are OK
Clouds: unknown
Weather: no significant weather observed at this time

METAR text: EDDC 171550Z 25004KT 210V280 9999 FEW043 17/10 Q1014 NOSIG
Conditions at: EDDC (DRESDEN/KLOTZSCH, DE) observed 1550 UTC 17 October 2019
Temperature: 17.0°C (63°F)
Dewpoint: 10.0°C (50°F) [RH = 63%]
Pressure (altimeter): 29.94 inches Hg (1014.0 mb)
Winds: from the WSW (250 degrees) at 5 MPH (4 knots; 2.1 m/s)
Visibility: 6 or more miles (10+ km)
Ceiling: at least 12,000 feet AGL
Clouds: few clouds at 4300 feet AGL
Weather: no significant weather observed at this time

METAR text: EDDC 171520Z 26005KT 230V300 9999 FEW042 18/10 Q1014 NOSIG
Conditions at: EDDC (DRESDEN/KLOTZSCH, DE) observed 1520 UTC 17 October 2019
Temperature: 18.0°C (64°F)
Dewpoint: 10.0°C (50°F) [RH = 59%]
Pressure (altimeter): 29.94 inches Hg (1014.0 mb)
Winds: from the W (260 degrees) at 6 MPH (5 knots; 2.6 m/s)
Visibility: 6 or more miles (10+ km)
Ceiling: at least 12,000 feet AGL
Clouds: few clouds at 4200 feet AGL
Weather: no significant weather observed at this time

METAR text: EDDC 171450Z 24004KT 200V280 9999 FEW045 18/09 Q1014 NOSIG
Conditions at: EDDC (DRESDEN/KLOTZSCH, DE) observed 1450 UTC 17 October 2019
Temperature: 18.0°C (64°F)
Dewpoint: 9.0°C (48°F) [RH = 56%]
Pressure (altimeter): 29.94 inches Hg (1014.0 mb)
Winds: from the WSW (240 degrees) at 5 MPH (4 knots; 2.1 m/s)
Visibility: 6 or more miles (10+ km)
Ceiling: at least 12,000 feet AGL
Clouds: few clouds at 4500 feet AGL
Weather: no significant weather observed at this time

METAR text: EDDC 171420Z 26007KT 230V300 9999 SCT044 18/09 Q1014 NOSIG
Conditions at: EDDC (DRESDEN/KLOTZSCH, DE) observed 1420 UTC 17 October 2019
Temperature: 18.0°C (64°F)
Dewpoint: 9.0°C (48°F) [RH = 56%]
Pressure (altimeter): 29.94 inches Hg (1014.0 mb)
Winds: from the W (260 degrees) at 8 MPH (7 knots; 3.6 m/s)
Visibility: 6 or more miles (10+ km)
Ceiling: at least 12,000 feet AGL
Clouds: scattered clouds at 4400 feet AGL
Weather: no significant weather observed at this time

METAR text: EDDC 171350Z 23006KT 210V280 CAVOK 18/09 Q1014 NOSIG
Conditions at: EDDC (DRESDEN/KLOTZSCH, DE) observed 1350 UTC 17 October 2019
Temperature: 18.0°C (64°F)
Dewpoint: 9.0°C (48°F) [RH = 56%]
Pressure (altimeter): 29.94 inches Hg (1014.0 mb)
Winds: from the SW (230 degrees) at 7 MPH (6 knots; 3.1 m/s)
Visibility: 6 or more miles (10+ km)
Ceiling: ceiling and visibility are OK
Clouds: unknown
Weather: no significant weather observed at this time

METAR text: EDDC 171320Z 25004KT 180V340 9999 SCT046 18/09 Q1014 NOSIG
Conditions at: EDDC (DRESDEN/KLOTZSCH, DE) observed 1320 UTC 17 October 2019
Temperature: 18.0°C (64°F)
Dewpoint: 9.0°C (48°F) [RH = 56%]
Pressure (altimeter): 29.94 inches Hg (1014.0 mb)
Winds: from the WSW (250 degrees) at 5 MPH (4 knots; 2.1 m/s)
Visibility: 6 or more miles (10+ km)
Ceiling: at least 12,000 feet AGL
Clouds: scattered clouds at 4600 feet AGL
Weather: no significant weather observed at this time

METAR text: EDDC 171250Z 23007KT 190V310 9999 FEW043 18/08 Q1014 NOSIG
Conditions at: EDDC (DRESDEN/KLOTZSCH, DE) observed 1250 UTC 17 October 2019
Temperature: 18.0°C (64°F)
Dewpoint: 8.0°C (46°F) [RH = 52%]
Pressure (altimeter): 29.94 inches Hg (1014.0 mb)
Winds: from the SW (230 degrees) at 8 MPH (7 knots; 3.6 m/s)
Visibility: 6 or more miles (10+ km)
Ceiling: at least 12,000 feet AGL
Clouds: few clouds at 4300 feet AGL
Weather: no significant weather observed at this time

METAR text: EDDC 171220Z 24008KT 210V270 9999 -RA NSC 18/07 Q1014 NOSIG
Conditions at: EDDC (DRESDEN/KLOTZSCH, DE) observed 1220 UTC 17 October 2019
Temperature: 18.0°C (64°F)
Dewpoint: 7.0°C (45°F) [RH = 49%]
Pressure (altimeter): 29.94 inches Hg (1014.0 mb)
Winds: from the WSW (240 degrees) at 9 MPH (8 knots; 4.1 m/s)
Visibility: 6 or more miles (10+ km)
Ceiling: at least 12,000 feet AGL
Clouds: sky clear below 12,000 feet AGL
Weather: -RA  (light rain)

METAR text: EDDC 171150Z 23008KT 200V260 CAVOK 18/08 Q1014 NOSIG
Conditions at: EDDC (DRESDEN/KLOTZSCH, DE) observed 1150 UTC 17 October 2019
Temperature: 18.0°C (64°F)
Dewpoint: 8.0°C (46°F) [RH = 52%]
Pressure (altimeter): 29.94 inches Hg (1014.0 mb)
Winds: from the SW (230 degrees) at 9 MPH (8 knots; 4.1 m/s)
Visibility: 6 or more miles (10+ km)
Ceiling: ceiling and visibility are OK
Clouds: unknown
Weather: no significant weather observed at this time

METAR text: EDDC 171120Z 22008KT 190V250 9999 FEW044 19/08 Q1014 NOSIG
Conditions at: EDDC (DRESDEN/KLOTZSCH, DE) observed 1120 UTC 17 October 2019
Temperature: 19.0°C (66°F)
Dewpoint: 8.0°C (46°F) [RH = 49%]
Pressure (altimeter): 29.94 inches Hg (1014.0 mb)
Winds: from the SW (220 degrees) at 9 MPH (8 knots; 4.1 m/s)
Visibility: 6 or more miles (10+ km)
Ceiling: at least 12,000 feet AGL
Clouds: few clouds at 4400 feet AGL
Weather: no significant weather observed at this time

Forecast for: EDDC (DRESDEN/KLOTZSCH, DE)
Text: TAF EDDC 181700Z 1818/1918 22008KT CAVOK
Forecast period: 1800 UTC 18 October 2019 to 0100 UTC 19 October 2019
Forecast type: FROM: standard forecast or significant change
Winds: from the SW (220 degrees) at 9 MPH (8 knots; 4.1 m/s)
Visibility: 6 or more miles 10+ km)
Ceiling: unknown
Clouds: missing
Weather: NSW  (no significant weather)
Text: BECMG 1901/1904 16005KT
Forecast period: 0100 to 1800 UTC 19 October 2019
Forecast type: BECOMING: Conditions expected to become as follows by 0400 UTC 19 October 2019
Winds: from the SSE (160 degrees) at 6 MPH (5 knots; 2.6 m/s)
Visibility: 6 or more miles 10+ km)
Ceiling: unknown
Clouds: missing
Weather: NSW  (no significant weather)